sensor_id;sensor_type;location;lat;lon;timestamp;P1;durP1;ratioP1;P2;durP2;ratioP2
32788;SDS011;19141;48.980;8.410;2022-09-30T04:22:33;14.07;;;5.05;;
32788;SDS011;19141;48.980;8.410;2022-09-30T04:24:59;15.98;;;5.32;;
32788;SDS011;19141;48.980;8.410;2022-09-30T04:27:24;15.93;;;6.25;;
32788;SDS011;19141;48.980;8.410;2022-09-30T04:29:50;21.77;;;7.40;;
32788;SDS011;19141;48.980;8.410;2022-09-30T04:32:15;23.17;;;7.60;;
32788;SDS011;19141;48.980;8.410;2022-09-30T04:34:41;12.27;;;6.18;;
32788;SDS011;19141;48.980;8.410;2022-09-30T04:37:06;17.75;;;7.07;;
32788;SDS011;19141;48.980;8.410;2022-09-30T04:39:31;16.67;;;6.88;;
32788;SDS011;19141;48.980;8.410;2022-09-30T04:41:57;16.90;;;5.78;;
32788;SDS011;19141;48.980;8.410;2022-09-30T04:44:22;18.80;;;6.90;;
32788;SDS011;19141;48.980;8.410;2022-09-30T04:46:48;14.20;;;6.05;;
32788;SDS011;19141;48.980;8.410;2022-09-30T04:49:14;21.98;;;7.68;;
32788;SDS011;19141;48.980;8.410;2022-09-30T04:51:40;15.63;;;5.85;;
32788;SDS011;19141;48.980;8.410;2022-09-30T04:56:33;13.27;;;5.97;;
32788;SDS011;19141;48.980;8.410;2022-09-30T04:58:58;11.88;;;5.47;;
32788;SDS011;19141;48.980;8.410;2022-09-30T05:01:24;18.05;;;5.88;;
32788;SDS011;19141;48.980;8.410;2022-09-30T05:03:49;15.73;;;6.32;;
32788;SDS011;19141;48.980;8.410;2022-09-30T05:06:14;17.33;;;6.05;;
32788;SDS011;19141;48.980;8.410;2022-09-30T05:08:40;20.63;;;6.03;;
32788;SDS011;19141;48.980;8.410;2022-09-30T05:11:08;17.17;;;6.13;;
32788;SDS011;19141;48.980;8.410;2022-09-30T05:13:38;21.00;;;6.88;;
32788;SDS011;19141;48.980;8.410;2022-09-30T05:16:05;13.60;;;5.63;;
32788;SDS011;19141;48.980;8.410;2022-09-30T05:18:31;14.95;;;5.07;;
32788;SDS011;19141;48.980;8.410;2022-09-30T05:21:00;17.73;;;5.97;;
32788;SDS011;19141;48.980;8.410;2022-09-30T05:23:28;12.90;;;5.30;;
32788;SDS011;19141;48.980;8.410;2022-09-30T05:25:55;17.52;;;5.35;;
32788;SDS011;19141;48.980;8.410;2022-09-30T05:28:21;15.48;;;6.30;;
32788;SDS011;19141;48.980;8.410;2022-09-30T05:30:47;17.63;;;6.32;;
32788;SDS011;19141;48.980;8.410;2022-09-30T05:33:14;18.00;;;6.30;;
32788;SDS011;19141;48.980;8.410;2022-09-30T05:35:40;21.98;;;5.72;;
32788;SDS011;19141;48.980;8.410;2022-09-30T05:38:07;15.73;;;6.13;;
32788;SDS011;19141;48.980;8.410;2022-09-30T05:40:36;21.05;;;6.85;;
32788;SDS011;19141;48.980;8.410;2022-09-30T05:43:02;18.15;;;6.45;;
32788;SDS011;19141;48.980;8.410;2022-09-30T05:45:27;21.85;;;5.93;;
32788;SDS011;19141;48.980;8.410;2022-09-30T05:47:53;15.38;;;5.88;;
32788;SDS011;19141;48.980;8.410;2022-09-30T05:50:20;16.63;;;6.00;;
32788;SDS011;19141;48.980;8.410;2022-09-30T05:52:46;21.23;;;6.93;;
32788;SDS011;19141;48.980;8.410;2022-09-30T05:55:12;20.02;;;6.53;;
32788;SDS011;19141;48.980;8.410;2022-09-30T05:57:38;15.63;;;6.18;;
32788;SDS011;19141;48.980;8.410;2022-09-30T06:00:04;14.43;;;6.40;;
32788;SDS011;19141;48.980;8.410;2022-09-30T06:02:36;14.40;;;6.40;;
32788;SDS011;19141;48.980;8.410;2022-09-30T06:05:03;12.90;;;5.65;;
32788;SDS011;19141;48.980;8.410;2022-09-30T06:07:29;18.73;;;6.70;;
32788;SDS011;19141;48.980;8.410;2022-09-30T06:09:56;15.55;;;7.22;;
32788;SDS011;19141;48.980;8.410;2022-09-30T06:12:22;15.35;;;6.13;;
32788;SDS011;19141;48.980;8.410;2022-09-30T06:14:49;14.25;;;5.82;;
32788;SDS011;19141;48.980;8.410;2022-09-30T06:17:14;15.23;;;5.32;;
32788;SDS011;19141;48.980;8.410;2022-09-30T06:19:42;16.98;;;5.80;;
32788;SDS011;19141;48.980;8.410;2022-09-30T06:22:07;15.98;;;6.82;;
32788;SDS011;19141;48.980;8.410;2022-09-30T06:24:33;16.30;;;6.35;;
32788;SDS011;19141;48.980;8.410;2022-09-30T06:26:58;20.08;;;6.07;;
32788;SDS011;19141;48.980;8.410;2022-09-30T06:29:24;16.13;;;5.80;;
32788;SDS011;19141;48.980;8.410;2022-09-30T06:31:49;17.67;;;5.80;;
32788;SDS011;19141;48.980;8.410;2022-09-30T06:34:15;19.17;;;6.82;;
32788;SDS011;19141;48.980;8.410;2022-09-30T06:36:40;18.05;;;7.38;;
32788;SDS011;19141;48.980;8.410;2022-09-30T06:39:05;19.67;;;6.57;;
32788;SDS011;19141;48.980;8.410;2022-09-30T06:41:31;25.85;;;7.18;;
32788;SDS011;19141;48.980;8.410;2022-09-30T06:43:56;22.75;;;7.60;;
32788;SDS011;19141;48.980;8.410;2022-09-30T06:46:22;18.85;;;6.72;;
32788;SDS011;19141;48.980;8.410;2022-09-30T06:48:52;13.15;;;5.97;;
32788;SDS011;19141;48.980;8.410;2022-09-30T06:51:19;22.27;;;7.85;;
32788;SDS011;19141;48.980;8.410;2022-09-30T06:53:45;29.90;;;9.52;;
32788;SDS011;19141;48.980;8.410;2022-09-30T06:56:15;28.83;;;11.45;;
32788;SDS011;19141;48.980;8.410;2022-09-30T06:58:42;24.70;;;10.27;;
32788;SDS011;19141;48.980;8.410;2022-09-30T07:01:09;27.50;;;10.15;;
32788;SDS011;19141;48.980;8.410;2022-09-30T07:03:38;20.80;;;8.63;;
32788;SDS011;19141;48.980;8.410;2022-09-30T07:06:04;23.60;;;7.97;;
32788;SDS011;19141;48.980;8.410;2022-09-30T07:08:31;16.55;;;7.57;;
32788;SDS011;19141;48.980;8.410;2022-09-30T07:11:02;32.78;;;13.95;;
32788;SDS011;19141;48.980;8.410;2022-09-30T07:13:29;27.83;;;12.30;;
32788;SDS011;19141;48.980;8.410;2022-09-30T07:15:55;21.45;;;9.68;;
32788;SDS011;19141;48.980;8.410;2022-09-30T07:18:22;19.38;;;7.50;;
32788;SDS011;19141;48.980;8.410;2022-09-30T07:20:51;16.37;;;8.13;;
32788;SDS011;19141;48.980;8.410;2022-09-30T07:23:19;22.20;;;7.95;;
32788;SDS011;19141;48.980;8.410;2022-09-30T07:25:55;20.75;;;8.23;;
32788;SDS011;19141;48.980;8.410;2022-09-30T07:28:23;18.52;;;7.90;;
32788;SDS011;19141;48.980;8.410;2022-09-30T07:30:55;22.08;;;7.95;;
32788;SDS011;19141;48.980;8.410;2022-09-30T07:33:23;19.08;;;8.45;;
32788;SDS011;19141;48.980;8.410;2022-09-30T07:35:54;21.20;;;8.52;;
32788;SDS011;19141;48.980;8.410;2022-09-30T07:38:21;15.88;;;7.55;;
32788;SDS011;19141;48.980;8.410;2022-09-30T07:40:53;21.77;;;9.10;;
32788;SDS011;19141;48.980;8.410;2022-09-30T07:43:22;20.58;;;8.30;;
32788;SDS011;19141;48.980;8.410;2022-09-30T07:45:49;22.40;;;9.25;;
32788;SDS011;19141;48.980;8.410;2022-09-30T07:48:15;18.70;;;8.32;;
32788;SDS011;19141;48.980;8.410;2022-09-30T07:50:59;20.92;;;7.97;;
32788;SDS011;19141;48.980;8.410;2022-09-30T07:53:25;15.98;;;7.10;;
32788;SDS011;19141;48.980;8.410;2022-09-30T07:55:50;18.55;;;7.88;;
32788;SDS011;19141;48.980;8.410;2022-09-30T07:58:16;22.95;;;10.90;;
32788;SDS011;19141;48.980;8.410;2022-09-30T08:00:41;19.73;;;8.98;;
32788;SDS011;19141;48.980;8.410;2022-09-30T08:03:07;16.50;;;7.32;;
32788;SDS011;19141;48.980;8.410;2022-09-30T08:05:37;18.48;;;7.82;;
32788;SDS011;19141;48.980;8.410;2022-09-30T08:08:03;19.95;;;8.95;;
32788;SDS011;19141;48.980;8.410;2022-09-30T08:10:33;19.67;;;9.27;;
32788;SDS011;19141;48.980;8.410;2022-09-30T08:12:59;20.40;;;8.68;;
32788;SDS011;19141;48.980;8.410;2022-09-30T08:15:24;18.95;;;8.82;;
32788;SDS011;19141;48.980;8.410;2022-09-30T08:17:50;18.02;;;8.88;;
32788;SDS011;19141;48.980;8.410;2022-09-30T08:20:15;17.33;;;8.48;;
32788;SDS011;19141;48.980;8.410;2022-09-30T08:22:40;18.98;;;8.60;;
32788;SDS011;19141;48.980;8.410;2022-09-30T08:25:06;15.60;;;7.45;;
32788;SDS011;19141;48.980;8.410;2022-09-30T08:27:32;16.65;;;8.45;;
32788;SDS011;19141;48.980;8.410;2022-09-30T08:29:57;16.25;;;8.23;;
32788;SDS011;19141;48.980;8.410;2022-09-30T08:32:22;19.23;;;7.88;;
32788;SDS011;19141;48.980;8.410;2022-09-30T08:34:48;21.15;;;8.15;;
32788;SDS011;19141;48.980;8.410;2022-09-30T08:37:13;14.32;;;7.75;;
32788;SDS011;19141;48.980;8.410;2022-09-30T08:39:39;16.58;;;8.38;;
32788;SDS011;19141;48.980;8.410;2022-09-30T08:42:13;15.60;;;7.78;;
32788;SDS011;19141;48.980;8.410;2022-09-30T08:44:49;23.83;;;8.77;;
32788;SDS011;19141;48.980;8.410;2022-09-30T08:47:32;17.48;;;7.53;;
32788;SDS011;19141;48.980;8.410;2022-09-30T08:50:03;19.77;;;8.15;;
32788;SDS011;19141;48.980;8.410;2022-09-30T08:52:34;19.15;;;7.88;;
32788;SDS011;19141;48.980;8.410;2022-09-30T08:55:02;16.77;;;8.18;;
32788;SDS011;19141;48.980;8.410;2022-09-30T08:57:38;15.98;;;9.23;;
32788;SDS011;19141;48.980;8.410;2022-09-30T09:02:57;16.77;;;9.20;;
32788;SDS011;19141;48.980;8.410;2022-09-30T09:05:27;21.02;;;8.77;;
32788;SDS011;19141;48.980;8.410;2022-09-30T09:18:41;19.63;;;9.43;;
32788;SDS011;19141;48.980;8.410;2022-09-30T09:21:29;16.15;;;8.57;;
32788;SDS011;19141;48.980;8.410;2022-09-30T09:23:58;22.45;;;9.32;;
32788;SDS011;19141;48.980;8.410;2022-09-30T09:26:26;14.77;;;8.93;;
32788;SDS011;19141;48.980;8.410;2022-09-30T09:32:01;16.60;;;9.35;;
32788;SDS011;19141;48.980;8.410;2022-09-30T09:34:36;16.70;;;8.85;;
32788;SDS011;19141;48.980;8.410;2022-09-30T09:37:16;25.23;;;9.18;;
32788;SDS011;19141;48.980;8.410;2022-09-30T09:40:09;17.50;;;8.32;;
32788;SDS011;19141;48.980;8.410;2022-09-30T09:42:45;19.77;;;9.05;;
32788;SDS011;19141;48.980;8.410;2022-09-30T09:45:25;14.50;;;7.68;;
32788;SDS011;19141;48.980;8.410;2022-09-30T09:47:56;17.25;;;7.90;;
32788;SDS011;19141;48.980;8.410;2022-09-30T09:50:23;15.68;;;7.97;;
32788;SDS011;19141;48.980;8.410;2022-09-30T09:53:15;14.85;;;7.90;;
32788;SDS011;19141;48.980;8.410;2022-09-30T09:55:56;13.95;;;7.30;;
32788;SDS011;19141;48.980;8.410;2022-09-30T09:58:24;15.32;;;7.72;;
32788;SDS011;19141;48.980;8.410;2022-09-30T10:00:50;14.18;;;7.45;;
32788;SDS011;19141;48.980;8.410;2022-09-30T10:03:25;14.95;;;8.07;;
32788;SDS011;19141;48.980;8.410;2022-09-30T10:05:59;15.10;;;7.03;;
32788;SDS011;19141;48.980;8.410;2022-09-30T10:08:28;13.60;;;7.82;;
32788;SDS011;19141;48.980;8.410;2022-09-30T10:10:59;13.32;;;7.47;;
32788;SDS011;19141;48.980;8.410;2022-09-30T10:15:59;13.40;;;6.60;;
32788;SDS011;19141;48.980;8.410;2022-09-30T10:18:27;15.27;;;7.25;;
32788;SDS011;19141;48.980;8.410;2022-09-30T10:20:58;12.68;;;7.05;;
32788;SDS011;19141;48.980;8.410;2022-09-30T10:23:34;12.40;;;7.47;;
32788;SDS011;19141;48.980;8.410;2022-09-30T10:26:14;13.52;;;6.47;;
32788;SDS011;19141;48.980;8.410;2022-09-30T10:28:44;10.63;;;6.38;;
32788;SDS011;19141;48.980;8.410;2022-09-30T10:31:11;12.65;;;7.13;;
32788;SDS011;19141;48.980;8.410;2022-09-30T10:33:41;12.13;;;6.57;;
32788;SDS011;19141;48.980;8.410;2022-09-30T10:36:15;16.80;;;8.95;;
32788;SDS011;19141;48.980;8.410;2022-09-30T10:38:44;12.00;;;6.63;;
32788;SDS011;19141;48.980;8.410;2022-09-30T10:41:31;7.22;;;4.95;;
32788;SDS011;19141;48.980;8.410;2022-09-30T10:43:59;9.18;;;5.72;;
32788;SDS011;19141;48.980;8.410;2022-09-30T10:46:30;8.65;;;5.85;;
32788;SDS011;19141;48.980;8.410;2022-09-30T10:48:59;7.75;;;5.38;;
32788;SDS011;19141;48.980;8.410;2022-09-30T10:51:33;9.27;;;6.07;;
32788;SDS011;19141;48.980;8.410;2022-09-30T10:54:00;8.00;;;5.63;;
32788;SDS011;19141;48.980;8.410;2022-09-30T10:56:36;9.20;;;5.65;;
32788;SDS011;19141;48.980;8.410;2022-09-30T10:59:04;8.48;;;4.90;;
32788;SDS011;19141;48.980;8.410;2022-09-30T11:01:42;10.75;;;6.22;;
32788;SDS011;19141;48.980;8.410;2022-09-30T11:07:04;14.05;;;6.13;;
32788;SDS011;19141;48.980;8.410;2022-09-30T11:15:42;8.15;;;4.70;;
32788;SDS011;19141;48.980;8.410;2022-09-30T11:20:39;7.70;;;5.22;;
32788;SDS011;19141;48.980;8.410;2022-09-30T11:23:12;8.27;;;4.30;;
32788;SDS011;19141;48.980;8.410;2022-09-30T11:26:16;6.30;;;4.18;;
32788;SDS011;19141;48.980;8.410;2022-09-30T11:28:54;5.43;;;4.07;;
32788;SDS011;19141;48.980;8.410;2022-09-30T11:31:42;7.63;;;4.65;;
32788;SDS011;19141;48.980;8.410;2022-09-30T11:39:34;8.10;;;4.95;;
32788;SDS011;19141;48.980;8.410;2022-09-30T11:56:22;5.80;;;3.72;;
32788;SDS011;19141;48.980;8.410;2022-09-30T11:58:49;7.22;;;4.13;;
32788;SDS011;19141;48.980;8.410;2022-09-30T12:04:07;9.13;;;4.22;;
32788;SDS011;19141;48.980;8.410;2022-09-30T12:09:41;4.75;;;3.30;;
32788;SDS011;19141;48.980;8.410;2022-09-30T12:12:11;5.47;;;3.97;;
32788;SDS011;19141;48.980;8.410;2022-09-30T12:14:42;6.30;;;4.00;;
32788;SDS011;19141;48.980;8.410;2022-09-30T12:17:17;6.80;;;3.50;;
32788;SDS011;19141;48.980;8.410;2022-09-30T12:19:50;5.25;;;3.75;;
32788;SDS011;19141;48.980;8.410;2022-09-30T12:22:29;5.40;;;3.65;;
32788;SDS011;19141;48.980;8.410;2022-09-30T12:24:57;5.38;;;3.35;;
32788;SDS011;19141;48.980;8.410;2022-09-30T12:27:27;4.78;;;3.30;;
32788;SDS011;19141;48.980;8.410;2022-09-30T12:30:00;4.80;;;3.22;;
32788;SDS011;19141;48.980;8.410;2022-09-30T12:47:10;4.45;;;3.25;;
32788;SDS011;19141;48.980;8.410;2022-09-30T12:49:44;3.17;;;2.50;;
32788;SDS011;19141;48.980;8.410;2022-09-30T12:52:12;4.55;;;3.05;;
32788;SDS011;19141;48.980;8.410;2022-09-30T12:54:51;4.63;;;3.00;;
32788;SDS011;19141;48.980;8.410;2022-09-30T12:57:23;6.22;;;3.05;;
32788;SDS011;19141;48.980;8.410;2022-09-30T12:59:55;4.13;;;2.15;;
32788;SDS011;19141;48.980;8.410;2022-09-30T13:02:30;5.32;;;3.00;;
32788;SDS011;19141;48.980;8.410;2022-09-30T13:08:36;3.78;;;2.70;;
32788;SDS011;19141;48.980;8.410;2022-09-30T13:13:55;4.15;;;2.63;;
32788;SDS011;19141;48.980;8.410;2022-09-30T13:15:59;3.42;;;2.30;;
32788;SDS011;19141;48.980;8.410;2022-09-30T13:23:40;4.18;;;2.50;;
32788;SDS011;19141;48.980;8.410;2022-09-30T13:28:48;3.65;;;2.45;;
32788;SDS011;19141;48.980;8.410;2022-09-30T13:36:28;2.65;;;2.20;;
32788;SDS011;19141;48.980;8.410;2022-09-30T13:41:40;2.95;;;2.08;;
32788;SDS011;19141;48.980;8.410;2022-09-30T13:44:13;3.58;;;2.33;;
32788;SDS011;19141;48.980;8.410;2022-09-30T13:46:58;4.35;;;2.03;;
32788;SDS011;19141;48.980;8.410;2022-09-30T13:49:37;4.10;;;2.70;;
32788;SDS011;19141;48.980;8.410;2022-09-30T13:52:06;4.80;;;2.72;;
32788;SDS011;19141;48.980;8.410;2022-09-30T13:54:34;3.72;;;2.00;;
32788;SDS011;19141;48.980;8.410;2022-09-30T13:57:04;4.60;;;2.30;;
32788;SDS011;19141;48.980;8.410;2022-09-30T14:08:03;2.75;;;2.10;;
32788;SDS011;19141;48.980;8.410;2022-09-30T14:16:06;3.03;;;2.28;;
32788;SDS011;19141;48.980;8.410;2022-09-30T14:21:25;6.47;;;3.35;;
32788;SDS011;19141;48.980;8.410;2022-09-30T14:26:56;2.25;;;1.65;;
32788;SDS011;19141;48.980;8.410;2022-09-30T14:32:15;4.05;;;1.73;;
32788;SDS011;19141;48.980;8.410;2022-09-30T14:34:47;2.38;;;1.58;;
32788;SDS011;19141;48.980;8.410;2022-09-30T14:37:13;5.68;;;1.60;;
32788;SDS011;19141;48.980;8.410;2022-09-30T14:39:45;1.73;;;1.40;;
32788;SDS011;19141;48.980;8.410;2022-09-30T14:42:12;6.22;;;1.88;;
32788;SDS011;19141;48.980;8.410;2022-09-30T14:44:48;3.50;;;2.30;;
32788;SDS011;19141;48.980;8.410;2022-09-30T14:47:14;2.58;;;1.73;;
32788;SDS011;19141;48.980;8.410;2022-09-30T14:49:41;2.47;;;1.60;;
32788;SDS011;19141;48.980;8.410;2022-09-30T14:52:30;3.38;;;2.05;;
32788;SDS011;19141;48.980;8.410;2022-09-30T14:55:00;3.33;;;1.40;;
32788;SDS011;19141;48.980;8.410;2022-09-30T14:57:25;5.80;;;1.83;;
32788;SDS011;19141;48.980;8.410;2022-09-30T14:59:52;2.22;;;1.73;;
32788;SDS011;19141;48.980;8.410;2022-09-30T15:03:09;3.17;;;1.50;;
32788;SDS011;19141;48.980;8.410;2022-09-30T15:05:36;1.80;;;1.42;;
32788;SDS011;19141;48.980;8.410;2022-09-30T15:08:02;1.92;;;1.40;;
32788;SDS011;19141;48.980;8.410;2022-09-30T15:10:27;1.88;;;1.42;;
32788;SDS011;19141;48.980;8.410;2022-09-30T15:12:53;3.28;;;1.75;;
32788;SDS011;19141;48.980;8.410;2022-09-30T15:15:40;1.77;;;1.52;;
32788;SDS011;19141;48.980;8.410;2022-09-30T15:20:49;2.60;;;2.03;;
32788;SDS011;19141;48.980;8.410;2022-09-30T15:23:19;3.65;;;2.17;;
32788;SDS011;19141;48.980;8.410;2022-09-30T15:25:49;2.05;;;1.40;;
32788;SDS011;19141;48.980;8.410;2022-09-30T15:28:15;1.75;;;1.60;;
32788;SDS011;19141;48.980;8.410;2022-09-30T15:30:41;1.70;;;1.60;;
32788;SDS011;19141;48.980;8.410;2022-09-30T15:33:11;1.77;;;1.48;;
32788;SDS011;19141;48.980;8.410;2022-09-30T15:35:41;6.93;;;1.80;;
32788;SDS011;19141;48.980;8.410;2022-09-30T15:38:08;2.33;;;1.60;;
32788;SDS011;19141;48.980;8.410;2022-09-30T15:40:42;1.85;;;1.45;;
32788;SDS011;19141;48.980;8.410;2022-09-30T15:43:10;3.33;;;1.88;;
32788;SDS011;19141;48.980;8.410;2022-09-30T15:45:40;2.55;;;1.83;;
32788;SDS011;19141;48.980;8.410;2022-09-30T15:50:50;2.35;;;1.70;;
32788;SDS011;19141;48.980;8.410;2022-09-30T15:53:31;2.75;;;1.60;;
32788;SDS011;19141;48.980;8.410;2022-09-30T16:04:13;2.45;;;1.42;;
32788;SDS011;19141;48.980;8.410;2022-09-30T16:06:49;2.92;;;1.58;;
32788;SDS011;19141;48.980;8.410;2022-09-30T16:11:45;1.83;;;1.38;;
32788;SDS011;19141;48.980;8.410;2022-09-30T16:16:52;1.95;;;1.60;;
32788;SDS011;19141;48.980;8.410;2022-09-30T16:19:20;2.03;;;1.67;;
32788;SDS011;19141;48.980;8.410;2022-09-30T16:21:49;1.85;;;1.55;;
32788;SDS011;19141;48.980;8.410;2022-09-30T16:26:47;1.80;;;1.30;;
32788;SDS011;19141;48.980;8.410;2022-09-30T16:29:14;2.50;;;1.00;;
32788;SDS011;19141;48.980;8.410;2022-09-30T16:31:41;1.67;;;1.05;;
32788;SDS011;19141;48.980;8.410;2022-09-30T16:34:17;1.60;;;0.93;;
32788;SDS011;19141;48.980;8.410;2022-09-30T16:36:46;1.90;;;1.10;;
32788;SDS011;19141;48.980;8.410;2022-09-30T16:39:11;1.00;;;0.93;;
32788;SDS011;19141;48.980;8.410;2022-09-30T16:41:39;4.53;;;1.55;;
32788;SDS011;19141;48.980;8.410;2022-09-30T16:44:05;3.45;;;1.15;;
32788;SDS011;19141;48.980;8.410;2022-09-30T16:46:30;1.85;;;1.30;;
32788;SDS011;19141;48.980;8.410;2022-09-30T16:48:57;1.75;;;1.30;;
32788;SDS011;19141;48.980;8.410;2022-09-30T16:51:23;2.10;;;1.40;;
32788;SDS011;19141;48.980;8.410;2022-09-30T16:53:49;1.83;;;1.45;;
32788;SDS011;19141;48.980;8.410;2022-09-30T16:56:15;2.03;;;1.30;;
32788;SDS011;19141;48.980;8.410;2022-09-30T16:58:43;2.38;;;1.27;;
32788;SDS011;19141;48.980;8.410;2022-09-30T17:01:17;2.50;;;1.60;;
32788;SDS011;19141;48.980;8.410;2022-09-30T17:03:44;1.75;;;1.40;;
32788;SDS011;19141;48.980;8.410;2022-09-30T17:06:10;2.72;;;1.40;;
32788;SDS011;19141;48.980;8.410;2022-09-30T17:08:36;1.52;;;1.30;;
32788;SDS011;19141;48.980;8.410;2022-09-30T17:11:02;2.13;;;1.70;;
32788;SDS011;19141;48.980;8.410;2022-09-30T17:13:27;6.53;;;2.05;;
32788;SDS011;19141;48.980;8.410;2022-09-30T17:15:53;2.95;;;2.17;;
32788;SDS011;19141;48.980;8.410;2022-09-30T17:18:19;3.35;;;1.65;;
32788;SDS011;19141;48.980;8.410;2022-09-30T17:20:45;2.00;;;1.80;;
32788;SDS011;19141;48.980;8.410;2022-09-30T17:23:16;3.45;;;2.35;;
32788;SDS011;19141;48.980;8.410;2022-09-30T17:25:43;3.00;;;2.05;;
32788;SDS011;19141;48.980;8.410;2022-09-30T17:28:09;2.63;;;2.03;;
32788;SDS011;19141;48.980;8.410;2022-09-30T17:30:35;5.03;;;2.08;;
32788;SDS011;19141;48.980;8.410;2022-09-30T17:33:03;4.03;;;2.42;;
32788;SDS011;19141;48.980;8.410;2022-09-30T17:35:29;6.07;;;2.42;;
32788;SDS011;19141;48.980;8.410;2022-09-30T17:37:54;3.10;;;2.08;;
32788;SDS011;19141;48.980;8.410;2022-09-30T17:40:20;3.03;;;2.05;;
32788;SDS011;19141;48.980;8.410;2022-09-30T17:43:04;3.17;;;1.80;;
32788;SDS011;19141;48.980;8.410;2022-09-30T17:45:35;5.78;;;2.00;;
32788;SDS011;19141;48.980;8.410;2022-09-30T17:50:29;2.40;;;1.77;;
32788;SDS011;19141;48.980;8.410;2022-09-30T17:52:54;4.15;;;2.03;;
32788;SDS011;19141;48.980;8.410;2022-09-30T17:55:20;3.15;;;2.20;;
32788;SDS011;19141;48.980;8.410;2022-09-30T17:57:45;3.70;;;2.22;;
32788;SDS011;19141;48.980;8.410;2022-09-30T18:00:11;3.60;;;2.28;;
32788;SDS011;19141;48.980;8.410;2022-09-30T18:02:37;2.67;;;2.08;;
32788;SDS011;19141;48.980;8.410;2022-09-30T18:05:03;7.03;;;2.17;;
32788;SDS011;19141;48.980;8.410;2022-09-30T18:07:29;3.08;;;1.98;;
32788;SDS011;19141;48.980;8.410;2022-09-30T18:09:55;2.33;;;2.08;;
32788;SDS011;19141;48.980;8.410;2022-09-30T18:12:20;3.15;;;1.90;;
32788;SDS011;19141;48.980;8.410;2022-09-30T18:14:46;2.45;;;1.63;;
32788;SDS011;19141;48.980;8.410;2022-09-30T18:17:11;2.90;;;2.08;;
32788;SDS011;19141;48.980;8.410;2022-09-30T18:19:36;2.75;;;1.95;;
32788;SDS011;19141;48.980;8.410;2022-09-30T18:22:02;3.45;;;2.30;;
32788;SDS011;19141;48.980;8.410;2022-09-30T18:24:27;2.92;;;2.20;;
32788;SDS011;19141;48.980;8.410;2022-09-30T18:27:11;2.65;;;2.17;;
32788;SDS011;19141;48.980;8.410;2022-09-30T18:29:37;7.30;;;3.38;;
32788;SDS011;19141;48.980;8.410;2022-09-30T18:32:03;5.35;;;2.88;;
32788;SDS011;19141;48.980;8.410;2022-09-30T18:34:29;4.93;;;3.53;;
32788;SDS011;19141;48.980;8.410;2022-09-30T18:36:55;5.47;;;3.30;;
32788;SDS011;19141;48.980;8.410;2022-09-30T18:39:20;5.70;;;3.50;;
32788;SDS011;19141;48.980;8.410;2022-09-30T18:41:46;8.80;;;3.67;;
32788;SDS011;19141;48.980;8.410;2022-09-30T18:44:12;9.45;;;4.75;;
32788;SDS011;19141;48.980;8.410;2022-09-30T18:46:38;5.13;;;4.63;;
32788;SDS011;19141;48.980;8.410;2022-09-30T18:49:04;7.03;;;4.40;;
32788;SDS011;19141;48.980;8.410;2022-09-30T18:51:29;5.78;;;3.40;;
32788;SDS011;19141;48.980;8.410;2022-09-30T18:53:56;5.57;;;3.08;;
32788;SDS011;19141;48.980;8.410;2022-09-30T18:56:24;6.53;;;2.80;;
32788;SDS011;19141;48.980;8.410;2022-09-30T18:58:53;7.65;;;2.47;;
32788;SDS011;19141;48.980;8.410;2022-09-30T19:01:19;4.78;;;3.40;;
32788;SDS011;19141;48.980;8.410;2022-09-30T19:03:44;4.97;;;3.03;;
32788;SDS011;19141;48.980;8.410;2022-09-30T19:06:10;6.95;;;3.25;;
32788;SDS011;19141;48.980;8.410;2022-09-30T19:08:35;6.97;;;4.32;;
32788;SDS011;19141;48.980;8.410;2022-09-30T19:11:07;9.07;;;4.57;;
32788;SDS011;19141;48.980;8.410;2022-09-30T19:13:39;5.90;;;3.75;;
32788;SDS011;19141;48.980;8.410;2022-09-30T19:16:06;6.20;;;3.20;;
32788;SDS011;19141;48.980;8.410;2022-09-30T19:18:32;9.85;;;3.10;;
32788;SDS011;19141;48.980;8.410;2022-09-30T19:21:08;5.10;;;3.65;;
32788;SDS011;19141;48.980;8.410;2022-09-30T19:23:36;5.45;;;4.00;;
32788;SDS011;19141;48.980;8.410;2022-09-30T19:26:02;5.35;;;3.63;;
32788;SDS011;19141;48.980;8.410;2022-09-30T19:28:29;7.95;;;4.70;;
32788;SDS011;19141;48.980;8.410;2022-09-30T19:30:55;11.40;;;4.78;;
32788;SDS011;19141;48.980;8.410;2022-09-30T19:33:24;4.63;;;3.03;;
32788;SDS011;19141;48.980;8.410;2022-09-30T19:35:59;5.38;;;3.22;;
32788;SDS011;19141;48.980;8.410;2022-09-30T19:38:28;4.70;;;3.28;;
32788;SDS011;19141;48.980;8.410;2022-09-30T19:40:56;7.45;;;3.28;;
32788;SDS011;19141;48.980;8.410;2022-09-30T19:43:21;5.70;;;3.50;;
32788;SDS011;19141;48.980;8.410;2022-09-30T19:45:56;7.07;;;3.70;;
32788;SDS011;19141;48.980;8.410;2022-09-30T19:48:27;9.15;;;4.40;;
32788;SDS011;19141;48.980;8.410;2022-09-30T19:53:36;12.82;;;5.15;;
32788;SDS011;19141;48.980;8.410;2022-09-30T19:56:10;11.20;;;6.50;;
32788;SDS011;19141;48.980;8.410;2022-09-30T19:58:39;7.30;;;4.55;;
32788;SDS011;19141;48.980;8.410;2022-09-30T20:03:32;8.63;;;3.60;;
32788;SDS011;19141;48.980;8.410;2022-09-30T20:06:02;6.15;;;3.70;;
32788;SDS011;19141;48.980;8.410;2022-09-30T20:08:30;5.90;;;3.33;;
32788;SDS011;19141;48.980;8.410;2022-09-30T20:11:04;7.13;;;4.22;;
32788;SDS011;19141;48.980;8.410;2022-09-30T20:13:32;10.13;;;5.63;;
32788;SDS011;19141;48.980;8.410;2022-09-30T20:16:01;7.78;;;5.03;;
32788;SDS011;19141;48.980;8.410;2022-09-30T20:18:29;9.27;;;5.78;;
32788;SDS011;19141;48.980;8.410;2022-09-30T20:20:55;9.32;;;5.80;;
32788;SDS011;19141;48.980;8.410;2022-09-30T20:23:21;9.23;;;5.78;;
32788;SDS011;19141;48.980;8.410;2022-09-30T20:25:47;12.13;;;5.75;;
32788;SDS011;19141;48.980;8.410;2022-09-30T20:30:41;9.63;;;5.28;;
32788;SDS011;19141;48.980;8.410;2022-09-30T20:33:10;8.73;;;4.90;;
32788;SDS011;19141;48.980;8.410;2022-09-30T20:35:40;10.63;;;4.95;;
32788;SDS011;19141;48.980;8.410;2022-09-30T20:38:07;9.48;;;4.78;;
32788;SDS011;19141;48.980;8.410;2022-09-30T20:40:35;7.43;;;4.18;;
32788;SDS011;19141;48.980;8.410;2022-09-30T20:43:01;8.75;;;4.40;;
32788;SDS011;19141;48.980;8.410;2022-09-30T20:45:28;8.23;;;4.00;;
32788;SDS011;19141;48.980;8.410;2022-09-30T20:47:54;9.48;;;5.07;;
32788;SDS011;19141;48.980;8.410;2022-09-30T20:50:20;9.63;;;4.22;;
32788;SDS011;19141;48.980;8.410;2022-09-30T20:53:06;7.78;;;4.22;;
32788;SDS011;19141;48.980;8.410;2022-09-30T20:55:33;7.10;;;4.50;;
32788;SDS011;19141;48.980;8.410;2022-09-30T20:58:03;9.13;;;4.47;;
32788;SDS011;19141;48.980;8.410;2022-09-30T21:00:30;4.65;;;4.07;;
32788;SDS011;19141;48.980;8.410;2022-09-30T21:02:56;5.38;;;3.63;;
32788;SDS011;19141;48.980;8.410;2022-09-30T21:05:22;7.25;;;3.35;;
32788;SDS011;19141;48.980;8.410;2022-09-30T21:07:47;10.02;;;3.75;;
32788;SDS011;19141;48.980;8.410;2022-09-30T21:10:13;4.95;;;2.97;;
32788;SDS011;19141;48.980;8.410;2022-09-30T21:12:38;4.68;;;3.10;;
32788;SDS011;19141;48.980;8.410;2022-09-30T21:15:04;7.63;;;4.35;;
32788;SDS011;19141;48.980;8.410;2022-09-30T21:17:30;8.98;;;4.53;;
32788;SDS011;19141;48.980;8.410;2022-09-30T21:19:55;4.47;;;2.97;;
32788;SDS011;19141;48.980;8.410;2022-09-30T21:22:21;7.82;;;4.63;;
32788;SDS011;19141;48.980;8.410;2022-09-30T21:24:46;6.20;;;4.00;;
32788;SDS011;19141;48.980;8.410;2022-09-30T21:27:12;7.82;;;4.22;;
32788;SDS011;19141;48.980;8.410;2022-09-30T21:29:37;6.57;;;3.70;;
32788;SDS011;19141;48.980;8.410;2022-09-30T21:32:03;10.98;;;5.25;;
32788;SDS011;19141;48.980;8.410;2022-09-30T21:34:29;6.95;;;4.10;;
32788;SDS011;19141;48.980;8.410;2022-09-30T21:36:55;6.55;;;4.00;;
32788;SDS011;19141;48.980;8.410;2022-09-30T21:39:20;8.32;;;4.20;;
32788;SDS011;19141;48.980;8.410;2022-09-30T21:41:46;7.20;;;3.72;;